CheckWX is a tool to help pilots better visualize weather data.  It is not intended as a substitute for an official pre-flight weather briefing.

09:13:04 UTC

KTTA METAR
Raleigh Exec Jetport at Sanford-Lee County Airport
Sanford, North Carolina, USA
Current

18 mins ago

KTTA 070855Z AUTO 00000KT 5SM BR CLR 20/20 A3005 RMK AO2 T01980198
Observed
Jul-7 @ 08:55 UTC
Visibility
5 SM
Flight Rules
MVFR
Conditions
Mist
Cloud Levels
  • Clear skies
Temperature
20°C / 68°F
Dewpoint
20°C / 68°F
Humidity
100%
Altimeter
30.05" Hg
Pressure
1017.62 hPa
Previous

38 mins ago

KTTA 070835Z AUTO 00000KT 10SM CLR 20/20 A3004 RMK AO2 T02000200
Observed
Jul-7 @ 08:35 UTC
Visibility
10 SM
Flight Rules
VFR
Cloud Levels
  • Clear skies
Temperature
20°C / 68°F
Dewpoint
20°C / 68°F
Humidity
100%
Altimeter
30.04" Hg
Pressure
1017.32 hPa
Previous

58 mins ago

KTTA 070815Z AUTO 00000KT 10SM CLR 20/20 A3005 RMK AO2 T02010201
Observed
Jul-7 @ 08:15 UTC
Visibility
10 SM
Flight Rules
VFR
Cloud Levels
  • Clear skies
Temperature
20°C / 68°F
Dewpoint
20°C / 68°F
Humidity
100%
Altimeter
30.05" Hg
Pressure
1017.62 hPa